Time,TemperatureF,DewpointF,PressureIn,WindDirection,WindDirectionDegrees,WindSpeedMPH,WindSpeedGustMPH,Humidity,HourlyPrecipIn,Conditions,Clouds,dailyrainin,SolarRadiationWatts/m^2,SoftwareType,DateUTC
2015-08-04 00:04:00,61.5,48.3,29.88,WNW,282,0.0,-999.0,62,0.00,,,0.00,0,WeatherHawk,2015-08-04 05:04:00,
2015-08-04 00:09:00,61.8,47.8,29.88,WNW,282,0.0,-999.0,60,0.00,,,0.00,0,WeatherHawk,2015-08-04 05:09:00,
2015-08-04 00:14:00,60.3,45.9,29.89,WNW,282,0.0,-999.0,59,0.00,,,0.00,0,WeatherHawk,2015-08-04 05:14:00,
2015-08-04 00:19:00,61.3,47.3,29.88,WNW,282,0.0,-999.0,60,0.00,,,0.00,1,WeatherHawk,2015-08-04 05:19:00,
2015-08-04 00:25:00,60.5,46.1,29.89,WNW,282,0.0,-999.0,59,0.00,,,0.00,0,WeatherHawk,2015-08-04 05:25:00,
2015-08-04 00:34:00,59.0,44.7,29.89,WNW,282,0.0,-999.0,59,0.00,,,0.00,0,WeatherHawk,2015-08-04 05:34:00,
2015-08-04 00:39:00,60.6,47.5,29.88,WNW,282,0.0,-999.0,62,0.00,,,0.00,0,WeatherHawk,2015-08-04 05:39:00,
2015-08-04 00:44:00,57.8,44.9,29.88,WNW,282,0.0,-999.0,62,0.00,,,0.00,0,WeatherHawk,2015-08-04 05:44:00,
2015-08-04 00:49:00,57.9,45.8,29.89,WNW,282,0.0,-999.0,64,0.00,,,0.00,0,WeatherHawk,2015-08-04 05:49:00,
2015-08-04 00:54:00,59.6,48.2,29.88,WNW,282,0.0,-999.0,66,0.00,,,0.00,0,WeatherHawk,2015-08-04 05:54:00,
2015-08-04 01:00:00,60.0,49.4,29.89,WNW,282,0.0,-999.0,68,0.00,,,0.00,0,WeatherHawk,2015-08-04 06:00:00,
2015-08-04 01:09:00,58.8,48.2,29.88,WNW,282,0.0,-999.0,68,0.00,,,0.00,0,WeatherHawk,2015-08-04 06:09:00,
2015-08-04 01:15:00,59.5,49.7,29.89,WNW,282,0.0,-999.0,70,0.00,,,0.00,0,WeatherHawk,2015-08-04 06:15:00,
2015-08-04 01:24:00,57.9,48.1,29.89,WNW,282,0.0,-999.0,70,0.00,,,0.00,0,WeatherHawk,2015-08-04 06:24:00,
2015-08-04 01:30:00,58.5,48.3,29.89,WNW,282,0.0,-999.0,69,0.00,,,0.00,0,WeatherHawk,2015-08-04 06:30:00,
2015-08-04 01:40:00,59.5,49.7,29.88,WNW,282,0.0,-999.0,70,0.00,,,0.00,0,WeatherHawk,2015-08-04 06:40:00,
2015-08-04 01:49:00,58.5,49.9,29.88,WNW,282,0.0,-999.0,73,0.00,,,0.00,0,WeatherHawk,2015-08-04 06:49:00,
2015-08-04 01:54:00,58.4,49.8,29.88,WNW,282,0.0,-999.0,73,0.00,,,0.00,1,WeatherHawk,2015-08-04 06:54:00,
2015-08-04 02:00:00,56.1,48.7,29.88,WNW,282,0.0,-999.0,76,0.00,,,0.00,1,WeatherHawk,2015-08-04 07:00:00,
2015-08-04 02:09:00,56.6,51.9,29.89,WNW,282,0.0,-999.0,84,0.00,,,0.00,0,WeatherHawk,2015-08-04 07:09:00,
2015-08-04 02:14:00,57.7,53.2,29.88,WNW,282,0.0,-999.0,85,0.00,,,0.00,0,WeatherHawk,2015-08-04 07:14:00,
2015-08-04 02:19:00,56.1,51.3,29.88,WNW,282,0.0,-999.0,84,0.00,,,0.00,0,WeatherHawk,2015-08-04 07:19:00,
2015-08-04 02:24:00,56.6,52.4,29.88,WNW,282,0.0,-999.0,86,0.00,,,0.00,0,WeatherHawk,2015-08-04 07:24:00,
2015-08-04 02:29:00,58.2,54.7,29.88,WNW,282,0.0,-999.0,88,0.00,,,0.00,0,WeatherHawk,2015-08-04 07:29:00,
2015-08-04 02:44:00,59.1,55.5,29.88,WSW,238,0.0,-999.0,88,0.00,,,0.00,0,WeatherHawk,2015-08-04 07:44:00,
2015-08-04 02:55:00,57.3,52.8,29.88,WSW,238,0.0,-999.0,85,0.00,,,0.00,0,WeatherHawk,2015-08-04 07:55:00,
2015-08-04 03:04:00,57.7,54.2,29.88,WSW,238,0.0,-999.0,88,0.00,,,0.00,0,WeatherHawk,2015-08-04 08:04:00,
2015-08-04 03:14:00,55.2,51.4,29.88,WSW,238,0.0,-999.0,87,0.00,,,0.00,0,WeatherHawk,2015-08-04 08:14:00,
2015-08-04 03:19:00,57.2,54.9,29.88,WSW,238,0.0,-999.0,92,0.00,,,0.00,0,WeatherHawk,2015-08-04 08:19:00,
2015-08-04 03:24:00,57.2,54.6,29.88,WSW,238,0.0,-999.0,91,0.00,,,0.00,0,WeatherHawk,2015-08-04 08:24:00,
2015-08-04 03:34:00,54.9,52.6,29.89,WSW,238,0.0,-999.0,92,0.00,,,0.00,0,WeatherHawk,2015-08-04 08:34:00,
2015-08-04 03:39:00,56.6,55.2,29.88,WSW,238,0.0,-999.0,95,0.00,,,0.00,0,WeatherHawk,2015-08-04 08:39:00,
2015-08-04 03:45:00,57.5,56.7,29.89,WSW,238,0.0,-999.0,97,0.00,,,0.00,0,WeatherHawk,2015-08-04 08:45:00,
2015-08-04 03:55:00,56.9,55.2,29.88,WSW,238,0.0,-999.0,94,0.00,,,0.00,1,WeatherHawk,2015-08-04 08:55:00,
2015-08-04 04:00:00,56.6,54.9,29.89,WSW,238,0.0,-999.0,94,0.00,,,0.00,0,WeatherHawk,2015-08-04 09:00:00,
2015-08-04 04:05:00,55.1,53.4,29.88,WSW,238,0.0,-999.0,94,0.00,,,0.00,0,WeatherHawk,2015-08-04 09:05:00,
2015-08-04 04:10:00,54.3,52.3,29.89,WSW,238,0.0,-999.0,93,0.00,,,0.00,0,WeatherHawk,2015-08-04 09:10:00,
2015-08-04 04:19:00,55.1,54.6,29.88,WSW,238,0.0,-999.0,98,0.00,,,0.00,0,WeatherHawk,2015-08-04 09:19:00,
2015-08-04 04:24:00,56.9,56.6,29.89,WSW,238,0.0,-999.0,99,0.00,,,0.00,0,WeatherHawk,2015-08-04 09:24:00,
2015-08-04 04:30:00,57.2,56.9,29.89,WSW,238,0.0,-999.0,99,0.00,,,0.00,0,WeatherHawk,2015-08-04 09:30:00,
2015-08-04 04:39:00,56.7,55.2,29.88,WSW,238,0.0,-999.0,95,0.00,,,0.00,0,WeatherHawk,2015-08-04 09:39:00,
2015-08-04 04:44:00,56.9,55.5,29.89,WSW,238,0.0,-999.0,95,0.00,,,0.00,0,WeatherHawk,2015-08-04 09:44:00,
2015-08-04 04:49:00,56.2,54.5,29.88,WSW,238,0.0,-999.0,94,0.00,,,0.00,0,WeatherHawk,2015-08-04 09:49:00,
2015-08-04 04:55:00,57.1,55.1,29.88,WSW,238,0.0,-999.0,93,0.00,,,0.00,0,WeatherHawk,2015-08-04 09:55:00,
2015-08-04 05:05:00,56.5,54.5,29.88,WSW,238,0.0,-999.0,93,0.00,,,0.00,0,WeatherHawk,2015-08-04 10:05:00,
2015-08-04 05:15:00,56.9,54.9,29.89,WSW,238,0.0,-999.0,93,0.00,,,0.00,0,WeatherHawk,2015-08-04 10:15:00,
2015-08-04 05:25:00,56.6,54.8,29.89,WSW,238,0.0,-999.0,94,0.00,,,0.00,0,WeatherHawk,2015-08-04 10:25:00,
2015-08-04 05:30:00,56.2,54.4,29.88,WSW,238,0.0,-999.0,94,0.00,,,0.00,1,WeatherHawk,2015-08-04 10:30:00,
2015-08-04 05:40:00,55.2,54.4,29.89,WSW,238,0.0,-999.0,97,0.00,,,0.00,0,WeatherHawk,2015-08-04 10:40:00,
2015-08-04 05:49:00,56.4,55.8,29.89,WSW,238,0.0,-999.0,98,0.00,,,0.00,3,WeatherHawk,2015-08-04 10:49:00,
2015-08-04 05:55:00,56.9,56.6,29.89,WSW,238,0.0,-999.0,99,0.00,,,0.00,6,WeatherHawk,2015-08-04 10:55:00,
2015-08-04 06:00:00,56.6,56.0,29.89,WSW,238,0.0,-999.0,98,0.00,,,0.00,8,WeatherHawk,2015-08-04 11:00:00,
2015-08-04 06:10:00,56.5,55.6,29.89,WSW,238,0.0,-999.0,97,0.00,,,0.00,13,WeatherHawk,2015-08-04 11:10:00,
2015-08-04 06:20:00,57.8,55.8,29.89,WSW,239,0.0,-999.0,93,0.00,,,0.00,24,WeatherHawk,2015-08-04 11:20:00,
2015-08-04 06:25:00,59.3,56.7,29.90,WSW,239,0.0,-999.0,91,0.00,,,0.00,40,WeatherHawk,2015-08-04 11:25:00,
2015-08-04 06:30:00,60.5,54.3,29.90,WSW,239,0.0,-999.0,80,0.00,,,0.00,49,WeatherHawk,2015-08-04 11:30:00,
2015-08-04 06:40:00,62.1,51.4,29.89,WSW,238,0.0,-999.0,68,0.00,,,0.00,62,WeatherHawk,2015-08-04 11:40:00,
2015-08-04 06:49:00,62.7,48.6,29.90,SSW,208,0.0,-999.0,60,0.00,,,0.00,84,WeatherHawk,2015-08-04 11:49:00,
2015-08-04 06:54:00,61.8,45.4,29.90,WSW,257,1.0,-999.0,55,0.00,,,0.00,95,WeatherHawk,2015-08-04 11:54:00,
2015-08-04 06:59:00,62.1,45.3,29.89,WSW,241,0.0,-999.0,54,0.00,,,0.00,108,WeatherHawk,2015-08-04 11:59:00,
2015-08-04 07:04:00,64.3,46.8,29.90,WSW,244,0.0,-999.0,53,0.00,,,0.00,119,WeatherHawk,2015-08-04 12:04:00,
2015-08-04 07:09:00,64.1,44.6,29.90,WSW,254,2.0,-999.0,49,0.00,,,0.00,134,WeatherHawk,2015-08-04 12:09:00,
2015-08-04 07:14:00,62.6,42.6,29.90,West,268,0.0,-999.0,48,0.00,,,0.00,149,WeatherHawk,2015-08-04 12:14:00,
2015-08-04 07:19:00,64.5,43.3,29.90,SW,234,0.0,-999.0,46,0.00,,,0.00,162,WeatherHawk,2015-08-04 12:19:00,
2015-08-04 07:24:00,65.0,43.1,29.90,SSW,211,0.0,-999.0,45,0.00,,,0.00,175,WeatherHawk,2015-08-04 12:24:00,
2015-08-04 07:29:00,64.5,41.5,29.90,WSW,244,1.0,-999.0,43,0.00,,,0.00,193,WeatherHawk,2015-08-04 12:29:00,
2015-08-04 07:39:00,66.3,41.3,29.91,WSW,239,0.0,-999.0,40,0.00,,,0.00,223,WeatherHawk,2015-08-04 12:39:00,
2015-08-04 07:44:00,65.7,40.1,29.91,WSW,239,1.0,-999.0,39,0.00,,,0.00,237,WeatherHawk,2015-08-04 12:44:00,
2015-08-04 07:54:00,67.1,39.9,29.91,West,262,0.0,-999.0,37,0.00,,,0.00,267,WeatherHawk,2015-08-04 12:54:00,
2015-08-04 08:04:00,67.5,38.1,29.91,West,260,1.0,-999.0,34,0.00,,,0.00,296,WeatherHawk,2015-08-04 13:04:00,
2015-08-04 08:09:00,66.3,37.1,29.91,NW,326,0.0,-999.0,34,0.00,,,0.00,313,WeatherHawk,2015-08-04 13:09:00,
2015-08-04 08:15:00,68.0,36.3,29.92,West,261,1.0,-999.0,31,0.00,,,0.00,329,WeatherHawk,2015-08-04 13:15:00,
2015-08-04 08:24:00,70.9,37.9,29.92,NW,311,0.0,-999.0,30,0.00,,,0.00,360,WeatherHawk,2015-08-04 13:24:00,
2015-08-04 08:30:00,72.0,37.1,29.92,West,278,0.0,-999.0,28,0.00,,,0.00,376,WeatherHawk,2015-08-04 13:30:00,
2015-08-04 08:39:00,68.2,33.8,29.93,WNW,301,0.0,-999.0,28,0.00,,,0.00,406,WeatherHawk,2015-08-04 13:39:00,
2015-08-04 08:44:00,67.9,34.4,29.93,NW,304,5.0,-999.0,29,0.00,,,0.00,425,WeatherHawk,2015-08-04 13:44:00,
2015-08-04 08:50:00,69.0,32.7,29.93,WNW,285,1.0,-999.0,26,0.00,,,0.00,442,WeatherHawk,2015-08-04 13:50:00,
2015-08-04 08:55:00,74.1,38.0,29.92,West,271,0.0,-999.0,27,0.00,,,0.00,459,WeatherHawk,2015-08-04 13:55:00,
2015-08-04 09:04:00,69.3,31.9,29.93,WNW,297,1.0,-999.0,25,0.00,,,0.00,468,WeatherHawk,2015-08-04 14:04:00,
2015-08-04 09:09:00,71.0,32.4,29.93,WNW,295,0.0,-999.0,24,0.00,,,0.00,493,WeatherHawk,2015-08-04 14:09:00,
2015-08-04 09:20:00,73.0,35.1,29.93,West,273,0.0,-999.0,25,0.00,,,0.00,521,WeatherHawk,2015-08-04 14:20:00,
2015-08-04 09:30:00,71.9,29.9,29.93,WNW,299,1.0,-999.0,21,0.00,,,0.00,554,WeatherHawk,2015-08-04 14:30:00,
2015-08-04 09:35:00,72.0,31.1,29.94,West,268,1.0,-999.0,22,0.00,,,0.00,549,WeatherHawk,2015-08-04 14:35:00,
2015-08-04 09:44:00,74.6,30.9,29.93,WSW,258,0.0,-999.0,20,0.00,,,0.00,582,WeatherHawk,2015-08-04 14:44:00,
2015-08-04 09:50:00,74.7,28.4,29.94,WSW,251,0.0,-999.0,18,0.00,,,0.00,573,WeatherHawk,2015-08-04 14:50:00,
2015-08-04 10:00:00,73.9,24.9,29.94,SW,228,3.0,-999.0,16,0.00,,,0.00,628,WeatherHawk,2015-08-04 15:00:00,
2015-08-04 10:09:00,73.4,24.5,29.94,WNW,293,3.0,-999.0,16,0.00,,,0.00,652,WeatherHawk,2015-08-04 15:09:00,
2015-08-04 10:14:00,75.9,26.5,29.93,WSW,257,1.0,-999.0,16,0.00,,,0.00,675,WeatherHawk,2015-08-04 15:14:00,
2015-08-04 10:20:00,71.6,23.1,29.94,NW,324,7.0,-999.0,16,0.00,,,0.00,695,WeatherHawk,2015-08-04 15:20:00,
2015-08-04 10:30:00,73.1,25.7,29.94,NW,319,4.0,-999.0,17,0.00,,,0.00,660,WeatherHawk,2015-08-04 15:30:00,
2015-08-04 10:35:00,76.1,30.8,29.94,NNW,347,0.0,-999.0,19,0.00,,,0.00,722,WeatherHawk,2015-08-04 15:35:00,
2015-08-04 10:45:00,76.2,26.7,29.94,SW,224,1.0,-999.0,16,0.00,,,0.00,741,WeatherHawk,2015-08-04 15:45:00,
2015-08-04 10:55:00,74.2,25.2,29.93,North,3,3.0,-999.0,16,0.00,,,0.00,732,WeatherHawk,2015-08-04 15:55:00,
2015-08-04 11:04:00,74.6,22.2,29.94,NW,325,5.0,-999.0,14,0.00,,,0.00,788,WeatherHawk,2015-08-04 16:04:00,
2015-08-04 11:09:00,74.1,26.5,29.94,NNW,342,0.0,-999.0,17,0.00,,,0.00,739,WeatherHawk,2015-08-04 16:09:00,
2015-08-04 11:14:00,74.1,26.5,29.94,NW,308,2.0,-999.0,17,0.00,,,0.00,773,WeatherHawk,2015-08-04 16:14:00,
2015-08-04 11:20:00,76.8,24.0,29.94,West,263,0.0,-999.0,14,0.00,,,0.00,810,WeatherHawk,2015-08-04 16:20:00,
2015-08-04 11:25:00,73.1,17.5,29.94,NW,315,7.0,-999.0,12,0.00,,,0.00,757,WeatherHawk,2015-08-04 16:25:00,
2015-08-04 11:34:00,77.3,27.6,29.94,WSW,243,1.0,-999.0,16,0.00,,,0.00,718,WeatherHawk,2015-08-04 16:34:00,
2015-08-04 11:40:00,74.1,16.2,29.93,West,275,2.0,-999.0,11,0.00,,,0.00,761,WeatherHawk,2015-08-04 16:40:00,
2015-08-04 11:45:00,75.6,21.3,29.94,WNW,292,3.0,-999.0,13,0.00,,,0.00,843,WeatherHawk,2015-08-04 16:45:00,
2015-08-04 11:54:00,75.9,23.3,29.94,WSW,246,5.0,-999.0,14,0.00,,,0.00,861,WeatherHawk,2015-08-04 16:54:00,
2015-08-04 11:59:00,73.9,13.9,29.94,WNW,301,5.0,-999.0,10,0.00,,,0.00,686,WeatherHawk,2015-08-04 16:59:00,
2015-08-04 12:04:00,75.6,21.3,29.93,WNW,282,1.0,-999.0,13,0.00,,,0.00,743,WeatherHawk,2015-08-04 17:04:00,
2015-08-04 12:14:00,75.7,19.5,29.93,SW,226,3.0,-999.0,12,0.00,,,0.00,586,WeatherHawk,2015-08-04 17:14:00,
2015-08-04 12:20:00,76.2,25.2,29.93,SW,231,4.0,-999.0,15,0.00,,,0.00,565,WeatherHawk,2015-08-04 17:20:00,
2015-08-04 12:29:00,74.9,22.5,29.94,West,278,0.0,-999.0,14,0.00,,,0.00,551,WeatherHawk,2015-08-04 17:29:00,
2015-08-04 12:34:00,76.2,23.5,29.94,NNW,336,1.0,-999.0,14,0.00,,,0.00,879,WeatherHawk,2015-08-04 17:34:00,
2015-08-04 12:39:00,76.5,22.0,29.93,West,261,1.0,-999.0,13,0.00,,,0.00,898,WeatherHawk,2015-08-04 17:39:00,
2015-08-04 12:44:00,77.0,20.5,29.93,West,270,1.0,-999.0,12,0.00,,,0.00,689,WeatherHawk,2015-08-04 17:44:00,
2015-08-04 12:50:00,75.6,21.3,29.94,NE,39,0.0,-999.0,13,0.00,,,0.00,921,WeatherHawk,2015-08-04 17:50:00,
2015-08-04 13:00:00,75.6,17.4,29.93,WNW,299,4.0,-999.0,11,0.00,,,0.00,663,WeatherHawk,2015-08-04 18:00:00,
2015-08-04 13:10:00,75.5,19.3,29.94,West,263,7.0,-999.0,12,0.00,,,0.00,688,WeatherHawk,2015-08-04 18:10:00,
2015-08-04 13:20:00,77.4,20.8,29.94,WSW,252,5.0,-999.0,12,0.00,,,0.00,941,WeatherHawk,2015-08-04 18:20:00,
2015-08-04 13:30:00,76.3,23.6,29.94,North,349,2.0,-999.0,14,0.00,,,0.00,965,WeatherHawk,2015-08-04 18:30:00,
2015-08-04 13:35:00,76.8,22.3,29.94,West,269,1.0,-999.0,13,0.00,,,0.00,642,WeatherHawk,2015-08-04 18:35:00,
2015-08-04 13:44:00,78.4,23.5,29.94,WNW,285,3.0,-999.0,13,0.00,,,0.00,891,WeatherHawk,2015-08-04 18:44:00,
2015-08-04 13:50:00,76.9,20.5,29.94,WSW,240,3.0,-999.0,12,0.00,,,0.00,665,WeatherHawk,2015-08-04 18:50:00,
2015-08-04 13:55:00,77.0,24.2,29.93,NW,320,3.0,-999.0,14,0.00,,,0.00,821,WeatherHawk,2015-08-04 18:55:00,
2015-08-04 14:04:00,78.3,23.4,29.94,WSW,256,0.0,-999.0,13,0.00,,,0.00,773,WeatherHawk,2015-08-04 19:04:00,
2015-08-04 14:09:00,77.9,21.2,29.93,West,269,1.0,-999.0,12,0.00,,,0.00,842,WeatherHawk,2015-08-04 19:09:00,
2015-08-04 14:14:00,77.9,24.8,29.93,WSW,246,2.0,-999.0,14,0.00,,,0.00,698,WeatherHawk,2015-08-04 19:14:00,
2015-08-04 14:20:00,74.4,22.1,29.92,NW,325,4.0,-999.0,14,0.00,,,0.00,241,WeatherHawk,2015-08-04 19:20:00,
2015-08-04 14:29:00,76.5,28.4,29.93,WNW,302,4.0,-999.0,17,0.00,,,0.00,897,WeatherHawk,2015-08-04 19:29:00,
2015-08-04 14:35:00,75.9,23.2,29.93,West,269,3.0,-999.0,14,0.00,,,0.00,763,WeatherHawk,2015-08-04 19:35:00,
2015-08-04 14:40:00,78.7,28.7,29.93,WNW,290,2.0,-999.0,16,0.00,,,0.00,716,WeatherHawk,2015-08-04 19:40:00,
2015-08-04 14:45:00,79.9,26.5,29.93,West,276,0.0,-999.0,14,0.00,,,0.00,593,WeatherHawk,2015-08-04 19:45:00,
2015-08-04 14:50:00,80.1,26.6,29.93,SW,232,1.0,-999.0,14,0.00,,,0.00,776,WeatherHawk,2015-08-04 19:50:00,
2015-08-04 15:00:00,78.9,22.0,29.93,SW,228,3.0,-999.0,12,0.00,,,0.00,757,WeatherHawk,2015-08-04 20:00:00,
2015-08-04 15:10:00,76.2,21.8,29.93,NW,316,0.0,-999.0,13,0.00,,,0.00,691,WeatherHawk,2015-08-04 20:10:00,
2015-08-04 15:20:00,78.2,23.4,29.93,North,1,1.0,-999.0,13,0.00,,,0.00,776,WeatherHawk,2015-08-04 20:20:00,
2015-08-04 15:29:00,77.0,20.5,29.93,WNW,295,6.0,-999.0,12,0.00,,,0.00,582,WeatherHawk,2015-08-04 20:29:00,
2015-08-04 15:34:00,77.2,22.5,29.93,WNW,299,6.0,-999.0,13,0.00,,,0.00,765,WeatherHawk,2015-08-04 20:34:00,
2015-08-04 15:40:00,75.0,19.0,29.93,NW,308,6.0,-999.0,12,0.00,,,0.00,416,WeatherHawk,2015-08-04 20:40:00,
2015-08-04 15:50:00,76.5,25.4,29.92,NNW,339,4.0,-999.0,15,0.00,,,0.00,274,WeatherHawk,2015-08-04 20:50:00,
2015-08-04 15:55:00,75.7,27.8,29.92,NW,309,1.0,-999.0,17,0.00,,,0.00,213,WeatherHawk,2015-08-04 20:55:00,
2015-08-04 16:04:00,79.1,29.0,29.92,NW,307,0.0,-999.0,16,0.00,,,0.00,196,WeatherHawk,2015-08-04 21:04:00,
2015-08-04 16:14:00,76.8,27.2,29.92,North,350,4.0,-999.0,16,0.00,,,0.00,620,WeatherHawk,2015-08-04 21:14:00,
2015-08-04 16:20:00,81.0,32.0,29.92,NW,320,0.0,-999.0,17,0.00,,,0.00,590,WeatherHawk,2015-08-04 21:20:00,
2015-08-04 16:29:00,77.1,22.5,29.92,West,269,4.0,-999.0,13,0.00,,,0.00,603,WeatherHawk,2015-08-04 21:29:00,
2015-08-04 16:35:00,78.1,25.0,29.92,West,269,3.0,-999.0,14,0.00,,,0.00,596,WeatherHawk,2015-08-04 21:35:00,
2015-08-04 16:45:00,79.0,27.4,29.92,West,274,2.0,-999.0,15,0.00,,,0.00,527,WeatherHawk,2015-08-04 21:45:00,
2015-08-04 16:54:00,78.9,23.9,29.91,NW,315,3.0,-999.0,13,0.00,,,0.00,593,WeatherHawk,2015-08-04 21:54:00,
2015-08-04 17:00:00,79.1,27.5,29.91,NW,310,2.0,-999.0,15,0.00,,,0.00,504,WeatherHawk,2015-08-04 22:00:00,
2015-08-04 17:09:00,78.2,26.7,29.92,NW,318,4.0,-999.0,15,0.00,,,0.00,430,WeatherHawk,2015-08-04 22:09:00,
2015-08-04 17:14:00,76.2,23.6,29.92,North,4,2.0,-999.0,14,0.00,,,0.00,464,WeatherHawk,2015-08-04 22:14:00,
2015-08-04 17:20:00,77.8,28.0,29.91,NNE,24,0.0,-999.0,16,0.00,,,0.00,357,WeatherHawk,2015-08-04 22:20:00,
2015-08-04 17:25:00,77.1,27.4,29.91,WSW,257,3.0,-999.0,16,0.00,,,0.00,436,WeatherHawk,2015-08-04 22:25:00,
2015-08-04 17:34:00,77.1,24.2,29.91,WSW,238,4.0,-999.0,14,0.00,,,0.00,364,WeatherHawk,2015-08-04 22:34:00,
2015-08-04 17:40:00,79.5,29.3,29.91,West,275,0.0,-999.0,16,0.00,,,0.00,384,WeatherHawk,2015-08-04 22:40:00,
2015-08-04 17:50:00,78.8,28.8,29.91,WNW,297,0.0,-999.0,16,0.00,,,0.00,345,WeatherHawk,2015-08-04 22:50:00,
2015-08-04 17:55:00,78.8,31.7,29.91,WSW,244,1.0,-999.0,18,0.00,,,0.00,196,WeatherHawk,2015-08-04 22:55:00,
2015-08-04 18:04:00,76.5,28.4,29.91,NW,325,0.0,-999.0,17,0.00,,,0.00,268,WeatherHawk,2015-08-04 23:04:00,
2015-08-04 18:10:00,77.3,27.6,29.91,WSW,245,2.0,-999.0,16,0.00,,,0.00,158,WeatherHawk,2015-08-04 23:10:00,
2015-08-04 18:15:00,76.7,27.1,29.91,West,264,0.0,-999.0,16,0.00,,,0.00,91,WeatherHawk,2015-08-04 23:15:00,
2015-08-04 18:24:00,77.6,32.0,29.90,WSW,257,0.0,-999.0,19,0.00,,,0.00,155,WeatherHawk,2015-08-04 23:24:00,
2015-08-04 18:30:00,76.9,31.5,29.91,NW,318,1.0,-999.0,19,0.00,,,0.00,198,WeatherHawk,2015-08-04 23:30:00,
2015-08-04 18:40:00,76.5,32.4,29.91,WNW,297,0.0,-999.0,20,0.00,,,0.00,215,WeatherHawk,2015-08-04 23:40:00,
2015-08-04 18:50:00,76.8,32.7,29.91,NW,318,0.0,-999.0,20,0.00,,,0.00,168,WeatherHawk,2015-08-04 23:50:00,
2015-08-04 19:00:00,75.0,29.9,29.91,NNW,327,0.0,-999.0,19,0.00,,,0.00,72,WeatherHawk,2015-08-05 00:00:00,
2015-08-04 19:05:00,75.2,31.3,29.91,NW,324,1.0,-999.0,20,0.00,,,0.00,91,WeatherHawk,2015-08-05 00:05:00,
2015-08-04 19:14:00,73.8,32.6,29.91,NW,314,2.0,-999.0,22,0.00,,,0.00,30,WeatherHawk,2015-08-05 00:14:00,
2015-08-04 19:20:00,74.8,35.6,29.91,NW,311,0.0,-999.0,24,0.00,,,0.00,32,WeatherHawk,2015-08-05 00:20:00,
2015-08-04 19:25:00,73.9,34.9,29.92,NW,304,0.0,-999.0,24,0.00,,,0.00,38,WeatherHawk,2015-08-05 00:25:00,
2015-08-04 19:34:00,73.5,36.5,29.92,WSW,252,0.0,-999.0,26,0.00,,,0.00,23,WeatherHawk,2015-08-05 00:34:00,
2015-08-04 19:39:00,73.3,36.3,29.91,West,269,0.0,-999.0,26,0.00,,,0.00,23,WeatherHawk,2015-08-05 00:39:00,
2015-08-04 19:45:00,73.2,37.2,29.92,West,260,0.0,-999.0,27,0.00,,,0.00,18,WeatherHawk,2015-08-05 00:45:00,
2015-08-04 19:54:00,71.5,38.4,29.92,West,260,0.0,-999.0,30,0.00,,,0.00,12,WeatherHawk,2015-08-05 00:54:00,
2015-08-04 20:00:00,71.2,39.0,29.92,West,260,0.0,-999.0,31,0.00,,,0.00,11,WeatherHawk,2015-08-05 01:00:00,
2015-08-04 20:09:00,69.5,39.1,29.93,West,260,0.0,-999.0,33,0.00,,,0.00,6,WeatherHawk,2015-08-05 01:09:00,
2015-08-04 20:15:00,68.8,40.0,29.93,West,260,0.0,-999.0,35,0.00,,,0.00,3,WeatherHawk,2015-08-05 01:15:00,
2015-08-04 20:24:00,69.0,42.3,29.94,West,260,0.0,-999.0,38,0.00,,,0.00,1,WeatherHawk,2015-08-05 01:24:00,
2015-08-04 20:29:00,66.1,41.1,29.94,West,260,0.0,-999.0,40,0.00,,,0.00,0,WeatherHawk,2015-08-05 01:29:00,
2015-08-04 20:34:00,66.1,41.1,29.93,West,260,0.0,-999.0,40,0.00,,,0.00,0,WeatherHawk,2015-08-05 01:34:00,
2015-08-04 20:39:00,67.0,43.8,29.93,West,260,0.0,-999.0,43,0.00,,,0.00,0,WeatherHawk,2015-08-05 01:39:00,
2015-08-04 20:44:00,67.3,43.4,29.93,West,260,0.0,-999.0,42,0.00,,,0.00,0,WeatherHawk,2015-08-05 01:44:00,
2015-08-04 20:49:00,66.4,43.8,29.94,West,260,0.0,-999.0,44,0.00,,,0.00,0,WeatherHawk,2015-08-05 01:49:00,
2015-08-04 20:55:00,64.6,42.8,29.95,West,260,0.0,-999.0,45,0.00,,,0.00,0,WeatherHawk,2015-08-05 01:55:00,
2015-08-04 21:04:00,66.2,45.4,29.95,West,260,0.0,-999.0,47,0.00,,,0.00,1,WeatherHawk,2015-08-05 02:04:00,
2015-08-04 21:09:00,66.8,45.9,29.95,West,260,0.0,-999.0,47,0.00,,,0.00,0,WeatherHawk,2015-08-05 02:09:00,
2015-08-04 21:14:00,67.3,45.8,29.95,West,260,0.0,-999.0,46,0.00,,,0.00,0,WeatherHawk,2015-08-05 02:14:00,
2015-08-04 21:19:00,66.0,45.2,29.96,West,260,0.0,-999.0,47,0.00,,,0.00,0,WeatherHawk,2015-08-05 02:19:00,
2015-08-04 21:24:00,64.6,43.9,29.96,West,260,0.0,-999.0,47,0.00,,,0.00,1,WeatherHawk,2015-08-05 02:24:00,
2015-08-04 21:30:00,64.3,44.2,29.96,West,260,0.0,-999.0,48,0.00,,,0.00,0,WeatherHawk,2015-08-05 02:30:00,
2015-08-04 21:40:00,64.6,45.0,29.96,West,260,0.0,-999.0,49,0.00,,,0.00,0,WeatherHawk,2015-08-05 02:40:00,
2015-08-04 21:50:00,65.3,46.2,29.96,West,260,0.0,-999.0,50,0.00,,,0.00,0,WeatherHawk,2015-08-05 02:50:00,
2015-08-04 22:00:00,65.1,47.1,29.95,West,260,0.0,-999.0,52,0.00,,,0.00,0,WeatherHawk,2015-08-05 03:00:00,
2015-08-04 22:05:00,64.3,46.8,29.95,West,260,0.0,-999.0,53,0.00,,,0.00,0,WeatherHawk,2015-08-05 03:05:00,
2015-08-04 22:10:00,62.9,45.5,29.96,West,260,0.0,-999.0,53,0.00,,,0.00,0,WeatherHawk,2015-08-05 03:10:00,